sensor_id;sensor_type;location;lat;lon;timestamp;pressure;altitude;pressure_sealevel;temperature;humidity
27425;BME280;15244;49.088;11.886;2023-02-12T00:00:59;97565.75;;;6.87;53.15
27425;BME280;15244;49.088;11.886;2023-02-12T00:06:06;97566.22;;;6.89;52.97
27425;BME280;15244;49.088;11.886;2023-02-12T00:11:18;97564.13;;;6.86;52.98
27425;BME280;15244;49.088;11.886;2023-02-12T00:16:25;97555.84;;;6.82;53.00
27425;BME280;15244;49.088;11.886;2023-02-12T00:21:31;97555.66;;;6.79;52.78
27425;BME280;15244;49.088;11.886;2023-02-12T00:26:34;97556.75;;;6.78;53.35
27425;BME280;15244;49.088;11.886;2023-02-12T00:31:44;97552.97;;;6.79;53.13
27425;BME280;15244;49.088;11.886;2023-02-12T00:36:54;97567.94;;;6.76;53.53
27425;BME280;15244;49.088;11.886;2023-02-12T00:42:00;97569.03;;;6.75;53.43
27425;BME280;15244;49.088;11.886;2023-02-12T00:47:07;97578.94;;;6.71;53.74
27425;BME280;15244;49.088;11.886;2023-02-12T00:52:16;97566.47;;;6.70;53.97
27425;BME280;15244;49.088;11.886;2023-02-12T00:57:17;97574.31;;;6.71;53.64
27425;BME280;15244;49.088;11.886;2023-02-12T01:02:23;97576.03;;;6.67;54.19
27425;BME280;15244;49.088;11.886;2023-02-12T01:07:27;97579.66;;;6.63;53.84
27425;BME280;15244;49.088;11.886;2023-02-12T01:12:31;97590.34;;;6.59;54.40
27425;BME280;15244;49.088;11.886;2023-02-12T01:17:36;97596.56;;;6.60;53.89
27425;BME280;15244;49.088;11.886;2023-02-12T01:22:41;97591.13;;;6.60;54.22
27425;BME280;15244;49.088;11.886;2023-02-12T01:27:52;97585.09;;;6.63;54.47
27425;BME280;15244;49.088;11.886;2023-02-12T01:33:01;97585.09;;;6.63;54.63
27425;BME280;15244;49.088;11.886;2023-02-12T01:38:05;97591.63;;;6.62;54.21
27425;BME280;15244;49.088;11.886;2023-02-12T01:43:11;97582.88;;;6.65;54.53
27425;BME280;15244;49.088;11.886;2023-02-12T01:48:15;97580.78;;;6.62;54.68
27425;BME280;15244;49.088;11.886;2023-02-12T01:53:25;97583.78;;;6.60;54.57
27425;BME280;15244;49.088;11.886;2023-02-12T01:58:35;97584.59;;;6.61;54.57
27425;BME280;15244;49.088;11.886;2023-02-12T02:03:38;97579.03;;;6.66;54.30
27425;BME280;15244;49.088;11.886;2023-02-12T02:08:45;97584.66;;;6.69;54.34
27425;BME280;15244;49.088;11.886;2023-02-12T02:13:49;97599.97;;;6.74;55.09
27425;BME280;15244;49.088;11.886;2023-02-12T02:35:20;97575.31;;;6.84;55.45
27425;BME280;15244;49.088;11.886;2023-02-12T02:40:46;97577.38;;;6.87;54.84
27425;BME280;15244;49.088;11.886;2023-02-12T02:45:58;97583.59;;;6.88;55.65
27425;BME280;15244;49.088;11.886;2023-02-12T02:51:07;97589.22;;;6.91;55.23
27425;BME280;15244;49.088;11.886;2023-02-12T02:56:19;97579.16;;;6.92;55.58
27425;BME280;15244;49.088;11.886;2023-02-12T03:01:35;97578.53;;;6.95;55.60
27425;BME280;15244;49.088;11.886;2023-02-12T03:06:49;97588.56;;;6.94;55.59
27425;BME280;15244;49.088;11.886;2023-02-12T03:12:00;97592.06;;;6.95;55.52
27425;BME280;15244;49.088;11.886;2023-02-12T03:17:23;97588.25;;;6.96;55.44
27425;BME280;15244;49.088;11.886;2023-02-12T03:22:36;97586.66;;;6.95;55.80
27425;BME280;15244;49.088;11.886;2023-02-12T03:28:03;97598.00;;;6.97;55.78
27425;BME280;15244;49.088;11.886;2023-02-12T03:33:17;97603.41;;;6.97;55.77
27425;BME280;15244;49.088;11.886;2023-02-12T03:38:44;97610.13;;;7.00;55.83
27425;BME280;15244;49.088;11.886;2023-02-12T03:43:58;97613.00;;;7.03;56.10
27425;BME280;15244;49.088;11.886;2023-02-12T03:49:17;97615.22;;;7.01;55.54
27425;BME280;15244;49.088;11.886;2023-02-12T03:54:25;97615.53;;;7.00;56.06
27425;BME280;15244;49.088;11.886;2023-02-12T03:59:30;97624.13;;;6.93;56.02
27425;BME280;15244;49.088;11.886;2023-02-12T04:04:33;97621.91;;;6.95;56.22
27425;BME280;15244;49.088;11.886;2023-02-12T04:09:37;97625.75;;;6.94;56.07
27425;BME280;15244;49.088;11.886;2023-02-12T04:14:52;97634.19;;;6.92;56.29
27425;BME280;15244;49.088;11.886;2023-02-12T04:20:19;97627.81;;;6.97;56.28
27425;BME280;15244;49.088;11.886;2023-02-12T04:31:05;97640.78;;;7.09;56.25
27425;BME280;15244;49.088;11.886;2023-02-12T04:36:15;97641.44;;;7.14;56.43
27425;BME280;15244;49.088;11.886;2023-02-12T04:41:27;97650.53;;;7.19;55.93
27425;BME280;15244;49.088;11.886;2023-02-12T04:46:36;97650.72;;;7.22;56.36
27425;BME280;15244;49.088;11.886;2023-02-12T04:51:51;97659.34;;;7.24;56.46
27425;BME280;15244;49.088;11.886;2023-02-12T04:56:53;97653.09;;;7.24;56.38
27425;BME280;15244;49.088;11.886;2023-02-12T05:01:58;97657.09;;;7.26;56.36
27425;BME280;15244;49.088;11.886;2023-02-12T05:07:00;97660.66;;;7.27;55.87
27425;BME280;15244;49.088;11.886;2023-02-12T05:12:02;97667.66;;;7.28;56.05
27425;BME280;15244;49.088;11.886;2023-02-12T05:17:07;97663.34;;;7.27;56.10
27425;BME280;15244;49.088;11.886;2023-02-12T05:22:18;97660.31;;;7.28;56.23
27425;BME280;15244;49.088;11.886;2023-02-12T05:27:26;97674.38;;;7.30;56.08
27425;BME280;15244;49.088;11.886;2023-02-12T05:32:35;97670.06;;;7.29;55.93
27425;BME280;15244;49.088;11.886;2023-02-12T05:37:41;97678.22;;;7.29;56.15
27425;BME280;15244;49.088;11.886;2023-02-12T05:42:45;97671.97;;;7.29;55.95
27425;BME280;15244;49.088;11.886;2023-02-12T05:47:49;97675.00;;;7.27;55.92
27425;BME280;15244;49.088;11.886;2023-02-12T05:52:50;97675.00;;;7.27;56.07
27425;BME280;15244;49.088;11.886;2023-02-12T05:57:54;97675.63;;;7.24;56.11
27425;BME280;15244;49.088;11.886;2023-02-12T06:02:59;97679.59;;;7.18;55.82
27425;BME280;15244;49.088;11.886;2023-02-12T06:08:01;97670.47;;;7.14;56.00
27425;BME280;15244;49.088;11.886;2023-02-12T06:13:02;97683.56;;;7.12;55.98
27425;BME280;15244;49.088;11.886;2023-02-12T06:18:09;97682.28;;;7.09;56.07
27425;BME280;15244;49.088;11.886;2023-02-12T06:23:14;97690.88;;;7.11;56.35
27425;BME280;15244;49.088;11.886;2023-02-12T06:28:16;97689.78;;;7.12;56.00
27425;BME280;15244;49.088;11.886;2023-02-12T06:33:20;97696.78;;;7.13;56.24
27425;BME280;15244;49.088;11.886;2023-02-12T06:38:23;97699.84;;;7.12;56.20
27425;BME280;15244;49.088;11.886;2023-02-12T06:43:30;97702.06;;;7.10;56.53
27425;BME280;15244;49.088;11.886;2023-02-12T06:48:32;97707.16;;;7.11;56.24
27425;BME280;15244;49.088;11.886;2023-02-12T06:53:39;97712.41;;;7.08;56.37
27425;BME280;15244;49.088;11.886;2023-02-12T06:58:45;97712.41;;;7.08;56.30
27425;BME280;15244;49.088;11.886;2023-02-12T07:04:00;97716.41;;;7.10;56.68
27425;BME280;15244;49.088;11.886;2023-02-12T07:09:05;97724.72;;;7.14;56.34
27425;BME280;15244;49.088;11.886;2023-02-12T07:14:15;97727.63;;;7.18;56.28
27425;BME280;15244;49.088;11.886;2023-02-12T07:19:28;97729.69;;;7.21;56.49
27425;BME280;15244;49.088;11.886;2023-02-12T07:24:32;97737.72;;;7.26;56.88
27425;BME280;15244;49.088;11.886;2023-02-12T07:29:35;97737.06;;;7.29;56.13
27425;BME280;15244;49.088;11.886;2023-02-12T07:34:38;97731.84;;;7.32;56.43
27425;BME280;15244;49.088;11.886;2023-02-12T07:39:48;97740.13;;;7.36;56.40
27425;BME280;15244;49.088;11.886;2023-02-12T07:44:52;97731.69;;;7.37;56.44
27425;BME280;15244;49.088;11.886;2023-02-12T07:49:56;97732.66;;;7.42;56.31
27425;BME280;15244;49.088;11.886;2023-02-12T07:55:00;97741.47;;;7.47;56.24
27425;BME280;15244;49.088;11.886;2023-02-12T08:00:20;97741.16;;;7.49;56.36
27425;BME280;15244;49.088;11.886;2023-02-12T08:05:24;97746.28;;;7.50;56.02
27425;BME280;15244;49.088;11.886;2023-02-12T08:10:28;97745.63;;;7.53;56.40
27425;BME280;15244;49.088;11.886;2023-02-12T08:15:37;97747.41;;;7.58;56.35
27425;BME280;15244;49.088;11.886;2023-02-12T08:20:41;97746.00;;;7.60;56.50
27425;BME280;15244;49.088;11.886;2023-02-12T08:26:23;97744.25;;;7.65;56.71
27425;BME280;15244;49.088;11.886;2023-02-12T08:31:30;97746.81;;;7.70;56.73
27425;BME280;15244;49.088;11.886;2023-02-12T08:36:38;97739.81;;;7.77;57.02
27425;BME280;15244;49.088;11.886;2023-02-12T08:41:48;97739.97;;;7.81;56.72
27425;BME280;15244;49.088;11.886;2023-02-12T08:46:55;97742.06;;;7.84;56.69
27425;BME280;15244;49.088;11.886;2023-02-12T08:52:06;97745.09;;;7.91;56.82
27425;BME280;15244;49.088;11.886;2023-02-12T08:57:12;97747.53;;;8.01;56.95
27425;BME280;15244;49.088;11.886;2023-02-12T09:02:18;97750.88;;;8.07;57.17
27425;BME280;15244;49.088;11.886;2023-02-12T09:07:22;97747.22;;;8.12;56.98
27425;BME280;15244;49.088;11.886;2023-02-12T09:12:26;97751.56;;;8.13;56.87
27425;BME280;15244;49.088;11.886;2023-02-12T09:17:28;97761.44;;;8.17;56.81
27425;BME280;15244;49.088;11.886;2023-02-12T09:22:33;97759.56;;;8.18;57.27
27425;BME280;15244;49.088;11.886;2023-02-12T09:27:40;97766.41;;;8.24;57.36
27425;BME280;15244;49.088;11.886;2023-02-12T09:32:44;97759.53;;;8.35;57.44
27425;BME280;15244;49.088;11.886;2023-02-12T09:37:51;97757.50;;;8.50;57.42
27425;BME280;15244;49.088;11.886;2023-02-12T09:43:02;97763.09;;;8.62;57.59
27425;BME280;15244;49.088;11.886;2023-02-12T09:48:17;97774.78;;;8.71;57.43
27425;BME280;15244;49.088;11.886;2023-02-12T09:53:28;97759.72;;;8.82;57.19
27425;BME280;15244;49.088;11.886;2023-02-12T09:58:40;97768.03;;;8.95;57.63
27425;BME280;15244;49.088;11.886;2023-02-12T10:03:47;97770.56;;;9.08;57.25
27425;BME280;15244;49.088;11.886;2023-02-12T10:08:58;97775.50;;;9.15;56.75
27425;BME280;15244;49.088;11.886;2023-02-12T10:25:35;97771.25;;;9.52;57.35
27425;BME280;15244;49.088;11.886;2023-02-12T10:42:12;97774.59;;;9.88;56.76
27425;BME280;15244;49.088;11.886;2023-02-12T10:47:23;97780.13;;;10.00;56.75
27425;BME280;15244;49.088;11.886;2023-02-12T10:52:44;97776.84;;;10.15;56.18
27425;BME280;15244;49.088;11.886;2023-02-12T10:57:50;97767.47;;;10.25;56.13
27425;BME280;15244;49.088;11.886;2023-02-12T11:08:43;97756.66;;;10.37;54.91
27425;BME280;15244;49.088;11.886;2023-02-12T11:19:29;97752.72;;;10.68;55.25
27425;BME280;15244;49.088;11.886;2023-02-12T11:24:34;97746.44;;;10.89;55.18
27425;BME280;15244;49.088;11.886;2023-02-12T11:29:41;97747.63;;;11.00;54.76
27425;BME280;15244;49.088;11.886;2023-02-12T11:35:14;97747.53;;;11.09;54.19
27425;BME280;15244;49.088;11.886;2023-02-12T11:40:27;97744.72;;;11.17;53.66
27425;BME280;15244;49.088;11.886;2023-02-12T11:45:33;97744.59;;;11.26;53.64
27425;BME280;15244;49.088;11.886;2023-02-12T11:50:50;97747.25;;;11.35;53.15
27425;BME280;15244;49.088;11.886;2023-02-12T11:56:02;97743.63;;;11.43;53.07
27425;BME280;15244;49.088;11.886;2023-02-12T12:01:27;97741.47;;;11.48;52.26
27425;BME280;15244;49.088;11.886;2023-02-12T12:06:34;97737.59;;;11.49;51.83
27425;BME280;15244;49.088;11.886;2023-02-12T12:11:58;97744.66;;;11.50;51.79
27425;BME280;15244;49.088;11.886;2023-02-12T12:17:13;97743.72;;;11.46;51.23
27425;BME280;15244;49.088;11.886;2023-02-12T12:22:45;97739.75;;;11.44;50.96
27425;BME280;15244;49.088;11.886;2023-02-12T12:28:23;97734.28;;;11.44;50.84
27425;BME280;15244;49.088;11.886;2023-02-12T12:39:06;97734.53;;;11.51;50.70
27425;BME280;15244;49.088;11.886;2023-02-12T12:55:26;97737.72;;;11.65;50.01
27425;BME280;15244;49.088;11.886;2023-02-12T13:11:39;97728.97;;;11.60;49.23
27425;BME280;15244;49.088;11.886;2023-02-12T13:22:12;97727.13;;;11.64;48.77
27425;BME280;15244;49.088;11.886;2023-02-12T13:27:24;97730.78;;;11.68;49.02
27425;BME280;15244;49.088;11.886;2023-02-12T13:32:41;97727.03;;;11.73;49.02
27425;BME280;15244;49.088;11.886;2023-02-12T13:37:48;97723.69;;;11.67;48.89
27425;BME280;15244;49.088;11.886;2023-02-12T13:43:04;97726.44;;;11.67;48.50
27425;BME280;15244;49.088;11.886;2023-02-12T14:04:56;97721.53;;;11.36;47.90
27425;BME280;15244;49.088;11.886;2023-02-12T14:10:20;97721.31;;;11.41;48.36
27425;BME280;15244;49.088;11.886;2023-02-12T14:15:32;97713.66;;;11.34;48.19
27425;BME280;15244;49.088;11.886;2023-02-12T14:20:40;97722.78;;;11.38;47.98
27425;BME280;15244;49.088;11.886;2023-02-12T14:25:47;97716.88;;;11.48;48.17
27425;BME280;15244;49.088;11.886;2023-02-12T14:31:28;97722.56;;;11.56;48.09
27425;BME280;15244;49.088;11.886;2023-02-12T14:37:10;97719.16;;;11.59;47.98
27425;BME280;15244;49.088;11.886;2023-02-12T14:43:00;97719.63;;;11.61;47.82
27425;BME280;15244;49.088;11.886;2023-02-12T14:52:58;97711.19;;;11.66;47.78
27425;BME280;15244;49.088;11.886;2023-02-12T14:58:05;97699.13;;;11.67;47.86
27425;BME280;15244;49.088;11.886;2023-02-12T15:08:42;97705.72;;;11.66;47.55
27425;BME280;15244;49.088;11.886;2023-02-12T15:13:58;97707.22;;;11.63;47.64
27425;BME280;15244;49.088;11.886;2023-02-12T15:19:15;97695.50;;;11.63;47.44
27425;BME280;15244;49.088;11.886;2023-02-12T15:24:27;97699.34;;;11.62;47.21
27425;BME280;15244;49.088;11.886;2023-02-12T15:29:44;97693.44;;;11.60;47.63
27425;BME280;15244;49.088;11.886;2023-02-12T15:34:49;97703.13;;;11.57;47.36
27425;BME280;15244;49.088;11.886;2023-02-12T15:39:55;97692.19;;;11.57;47.63
27425;BME280;15244;49.088;11.886;2023-02-12T15:50:15;97690.81;;;11.51;47.23
27425;BME280;15244;49.088;11.886;2023-02-12T15:55:20;97685.25;;;11.47;47.17
27425;BME280;15244;49.088;11.886;2023-02-12T16:00:27;97685.81;;;11.41;47.16
27425;BME280;15244;49.088;11.886;2023-02-12T16:05:32;97686.34;;;11.34;47.21
27425;BME280;15244;49.088;11.886;2023-02-12T16:10:41;97691.25;;;11.28;47.02
27425;BME280;15244;49.088;11.886;2023-02-12T16:15:44;97683.66;;;11.22;47.28
27425;BME280;15244;49.088;11.886;2023-02-12T16:21:24;97687.25;;;11.14;47.40
27425;BME280;15244;49.088;11.886;2023-02-12T16:26:28;97683.94;;;11.08;47.87
27425;BME280;15244;49.088;11.886;2023-02-12T16:31:30;97686.78;;;10.99;47.64
27425;BME280;15244;49.088;11.886;2023-02-12T16:36:31;97696.06;;;10.86;47.38
27425;BME280;15244;49.088;11.886;2023-02-12T16:41:50;97707.59;;;10.71;47.03
27425;BME280;15244;49.088;11.886;2023-02-12T16:46:56;97715.31;;;10.56;47.22
27425;BME280;15244;49.088;11.886;2023-02-12T16:52:32;97718.28;;;10.43;47.54
27425;BME280;15244;49.088;11.886;2023-02-12T16:57:34;97710.41;;;10.29;47.08
27425;BME280;15244;49.088;11.886;2023-02-12T17:02:38;97715.75;;;10.16;47.41
27425;BME280;15244;49.088;11.886;2023-02-12T17:07:41;97726.28;;;9.97;47.21
27425;BME280;15244;49.088;11.886;2023-02-12T17:12:47;97735.50;;;9.84;47.66
27425;BME280;15244;49.088;11.886;2023-02-12T17:17:49;97735.75;;;9.70;47.79
27425;BME280;15244;49.088;11.886;2023-02-12T17:22:53;97738.69;;;9.56;47.71
27425;BME280;15244;49.088;11.886;2023-02-12T17:28:04;97740.66;;;9.47;47.96
27425;BME280;15244;49.088;11.886;2023-02-12T17:33:10;97748.19;;;9.41;48.22
27425;BME280;15244;49.088;11.886;2023-02-12T17:38:17;97747.91;;;9.34;48.33
27425;BME280;15244;49.088;11.886;2023-02-12T17:43:19;97743.78;;;9.28;48.69
27425;BME280;15244;49.088;11.886;2023-02-12T17:48:23;97746.34;;;9.24;48.42
27425;BME280;15244;49.088;11.886;2023-02-12T17:53:25;97747.16;;;9.25;48.68
27425;BME280;15244;49.088;11.886;2023-02-12T17:58:26;97754.53;;;9.24;48.83
27425;BME280;15244;49.088;11.886;2023-02-12T18:03:28;97743.63;;;9.24;48.94
27425;BME280;15244;49.088;11.886;2023-02-12T18:08:30;97754.84;;;9.23;49.01
27425;BME280;15244;49.088;11.886;2023-02-12T18:13:32;97736.75;;;9.18;48.89
27425;BME280;15244;49.088;11.886;2023-02-12T18:18:34;97731.97;;;9.15;48.96
27425;BME280;15244;49.088;11.886;2023-02-12T18:23:42;97754.72;;;9.10;48.63
27425;BME280;15244;49.088;11.886;2023-02-12T18:28:44;97738.41;;;9.02;48.64
27425;BME280;15244;49.088;11.886;2023-02-12T18:33:46;97742.75;;;8.94;48.35
27425;BME280;15244;49.088;11.886;2023-02-12T18:38:49;97742.28;;;8.83;48.67
27425;BME280;15244;49.088;11.886;2023-02-12T18:43:51;97742.59;;;8.73;48.51
27425;BME280;15244;49.088;11.886;2023-02-12T18:48:54;97742.78;;;8.68;48.64
27425;BME280;15244;49.088;11.886;2023-02-12T18:53:57;97742.47;;;8.61;48.72
27425;BME280;15244;49.088;11.886;2023-02-12T18:59:03;97750.78;;;8.56;48.97
27425;BME280;15244;49.088;11.886;2023-02-12T19:04:12;97739.75;;;8.52;49.16
27425;BME280;15244;49.088;11.886;2023-02-12T19:09:18;97736.88;;;8.49;49.66
27425;BME280;15244;49.088;11.886;2023-02-12T19:14:24;97742.50;;;8.43;49.27
27425;BME280;15244;49.088;11.886;2023-02-12T19:19:26;97737.00;;;8.35;49.27
27425;BME280;15244;49.088;11.886;2023-02-12T19:24:38;97743.38;;;8.30;49.54
27425;BME280;15244;49.088;11.886;2023-02-12T19:29:47;97736.38;;;8.29;50.15
27425;BME280;15244;49.088;11.886;2023-02-12T19:34:48;97738.59;;;8.27;50.05
27425;BME280;15244;49.088;11.886;2023-02-12T19:39:52;97750.13;;;8.24;50.33
27425;BME280;15244;49.088;11.886;2023-02-12T19:44:56;97749.13;;;8.20;50.44
27425;BME280;15244;49.088;11.886;2023-02-12T19:50:00;97752.97;;;8.19;50.32
27425;BME280;15244;49.088;11.886;2023-02-12T19:55:02;97749.47;;;8.18;51.28
27425;BME280;15244;49.088;11.886;2023-02-12T20:00:04;97754.41;;;8.16;50.72
27425;BME280;15244;49.088;11.886;2023-02-12T20:05:06;97748.19;;;8.16;50.96
27425;BME280;15244;49.088;11.886;2023-02-12T20:10:13;97740.84;;;8.16;51.21
27425;BME280;15244;49.088;11.886;2023-02-12T20:15:21;97752.50;;;8.17;51.18
27425;BME280;15244;49.088;11.886;2023-02-12T20:20:25;97756.00;;;8.17;51.42
27425;BME280;15244;49.088;11.886;2023-02-12T20:25:27;97755.06;;;8.13;51.44
27425;BME280;15244;49.088;11.886;2023-02-12T20:30:31;97758.09;;;8.12;51.86
27425;BME280;15244;49.088;11.886;2023-02-12T20:35:32;97763.03;;;8.10;51.64
27425;BME280;15244;49.088;11.886;2023-02-12T20:40:41;97759.53;;;8.09;51.62
27425;BME280;15244;49.088;11.886;2023-02-12T20:45:42;97758.53;;;8.05;51.78
27425;BME280;15244;49.088;11.886;2023-02-12T20:50:44;97759.19;;;8.02;51.57
27425;BME280;15244;49.088;11.886;2023-02-12T20:55:46;97766.03;;;7.99;51.80
27425;BME280;15244;49.088;11.886;2023-02-12T21:00:50;97763.81;;;7.93;51.93
27425;BME280;15244;49.088;11.886;2023-02-12T21:05:51;97759.81;;;7.90;51.72
27425;BME280;15244;49.088;11.886;2023-02-12T21:11:08;97766.97;;;7.86;51.70
27425;BME280;15244;49.088;11.886;2023-02-12T21:16:17;97765.69;;;7.84;51.99
27425;BME280;15244;49.088;11.886;2023-02-12T21:21:28;97757.84;;;7.82;52.01
27425;BME280;15244;49.088;11.886;2023-02-12T21:26:35;97760.91;;;7.80;52.35
27425;BME280;15244;49.088;11.886;2023-02-12T21:31:39;97760.13;;;7.80;52.41
27425;BME280;15244;49.088;11.886;2023-02-12T21:36:48;97758.50;;;7.79;52.48
27425;BME280;15244;49.088;11.886;2023-02-12T21:42:01;97758.81;;;7.77;52.33
27425;BME280;15244;49.088;11.886;2023-02-12T21:47:11;97750.50;;;7.74;52.46
27425;BME280;15244;49.088;11.886;2023-02-12T21:52:12;97743.63;;;7.68;51.77
27425;BME280;15244;49.088;11.886;2023-02-12T21:57:14;97750.28;;;7.62;52.17
27425;BME280;15244;49.088;11.886;2023-02-12T22:02:22;97743.09;;;7.57;52.04
27425;BME280;15244;49.088;11.886;2023-02-12T22:07:25;97741.81;;;7.54;52.09
27425;BME280;15244;49.088;11.886;2023-02-12T22:12:27;97744.50;;;7.54;52.44
27425;BME280;15244;49.088;11.886;2023-02-12T22:17:38;97747.88;;;7.51;52.31
27425;BME280;15244;49.088;11.886;2023-02-12T22:22:47;97744.66;;;7.49;52.48
27425;BME280;15244;49.088;11.886;2023-02-12T22:27:49;97745.91;;;7.43;51.94
27425;BME280;15244;49.088;11.886;2023-02-12T22:32:50;97749.28;;;7.40;52.18
27425;BME280;15244;49.088;11.886;2023-02-12T22:37:52;97750.69;;;7.37;52.28
27425;BME280;15244;49.088;11.886;2023-02-12T22:42:56;97754.50;;;7.36;52.16
27425;BME280;15244;49.088;11.886;2023-02-12T22:47:58;97751.31;;;7.34;52.42
27425;BME280;15244;49.088;11.886;2023-02-12T22:53:04;97753.06;;;7.30;52.84
27425;BME280;15244;49.088;11.886;2023-02-12T22:58:05;97754.47;;;7.28;52.72
27425;BME280;15244;49.088;11.886;2023-02-12T23:03:11;97746.97;;;7.25;53.35
27425;BME280;15244;49.088;11.886;2023-02-12T23:08:16;97746.19;;;7.24;53.46
27425;BME280;15244;49.088;11.886;2023-02-12T23:13:18;97749.50;;;7.21;53.16
27425;BME280;15244;49.088;11.886;2023-02-12T23:18:30;97749.31;;;7.18;53.77
27425;BME280;15244;49.088;11.886;2023-02-12T23:23:32;97752.66;;;7.14;53.04
27425;BME280;15244;49.088;11.886;2023-02-12T23:28:37;97748.97;;;7.10;53.66
27425;BME280;15244;49.088;11.886;2023-02-12T23:33:48;97739.84;;;7.06;53.39
27425;BME280;15244;49.088;11.886;2023-02-12T23:38:53;97742.09;;;7.04;53.50
27425;BME280;15244;49.088;11.886;2023-02-12T23:43:56;97739.97;;;7.01;53.31
27425;BME280;15244;49.088;11.886;2023-02-12T23:48:59;97736.59;;;6.95;53.67
27425;BME280;15244;49.088;11.886;2023-02-12T23:54:01;97731.63;;;6.89;53.72
27425;BME280;15244;49.088;11.886;2023-02-12T23:59:05;97735.25;;;6.84;53.38
